createdAt,value
2022-12-06T00:01:36.176Z,100144.97
2022-12-06T00:04:03.825Z,100142.28
2022-12-06T00:06:31.814Z,100142.28
2022-12-06T00:08:59.449Z,100147.47
2022-12-06T00:11:27.123Z,100144.84
2022-12-06T00:13:54.706Z,100143.97
2022-12-06T00:16:22.926Z,100141.31
2022-12-06T00:18:50.962Z,100145.69
2022-12-06T00:21:18.580Z,100145.69
2022-12-06T00:23:46.210Z,100141.31
2022-12-06T00:26:13.860Z,100137.75
2022-12-06T00:28:41.874Z,100134.19
2022-12-06T00:31:10.164Z,100133.38
2022-12-06T00:33:37.777Z,100141.16
2022-12-06T00:36:05.345Z,100143.78
2022-12-06T00:38:33.109Z,100144.66
2022-12-06T00:41:01.958Z,100147.28
2022-12-06T00:43:29.904Z,100138.47
2022-12-06T00:45:57.581Z,100134.16
2022-12-06T00:48:25.973Z,100147.19
2022-12-06T00:50:53.538Z,100151.56
2022-12-06T00:53:24.240Z,100135.78
2022-12-06T00:55:52.280Z,100149.72
2022-12-06T00:58:20.035Z,100145.28
2022-12-06T01:00:47.731Z,100151.41
2022-12-06T01:03:15.457Z,100144.41
2022-12-06T01:05:44.365Z,100146.94
2022-12-06T01:08:12.404Z,100141.69
2022-12-06T01:10:40.079Z,100144.31
2022-12-06T01:13:07.627Z,100137.28
2022-12-06T01:15:35.494Z,100136.41
2022-12-06T01:18:03.194Z,100143.38
2022-12-06T01:20:31.204Z,100139.00
2022-12-06T01:22:58.770Z,100146.00
2022-12-06T01:25:27.376Z,100145.13
2022-12-06T01:27:56.234Z,100147.75
2022-12-06T01:30:24.848Z,100146.88
2022-12-06T01:32:52.849Z,100143.31
2022-12-06T01:35:20.398Z,100145.94
2022-12-06T01:37:47.999Z,100149.44
2022-12-06T01:40:15.696Z,100152.06
2022-12-06T01:42:43.287Z,100152.91
2022-12-06T01:45:11.163Z,100152.91
2022-12-06T01:47:38.775Z,100149.34
2022-12-06T01:50:06.322Z,100146.72
2022-12-06T01:52:33.875Z,100137.97
2022-12-06T01:55:01.509Z,100142.34
2022-12-06T01:57:29.565Z,100141.47
2022-12-06T01:59:57.357Z,100149.34
2022-12-06T02:02:25.274Z,100147.66
2022-12-06T02:04:52.904Z,100146.72
2022-12-06T02:07:21.648Z,100143.28
2022-12-06T02:09:49.606Z,100139.78
2022-12-06T02:12:17.175Z,100145.03
2022-12-06T02:14:44.752Z,100127.50
2022-12-06T02:17:12.389Z,100129.25
2022-12-06T02:19:42.971Z,100130.13
2022-12-06T02:22:10.898Z,100134.53
2022-12-06T02:24:38.511Z,100135.38
2022-12-06T02:27:06.134Z,100131.84
2022-12-06T02:29:33.753Z,100124.88
2022-12-06T02:32:02.625Z,100121.31
2022-12-06T02:34:30.187Z,100124.81
2022-12-06T02:36:57.740Z,100129.16
2022-12-06T02:39:25.327Z,100121.19
2022-12-06T02:41:53.374Z,100121.19
2022-12-06T02:44:22.646Z,100122.03
2022-12-06T02:46:50.585Z,100122.03
2022-12-06T02:49:18.187Z,100122.00
2022-12-06T02:51:45.723Z,100121.06
2022-12-06T02:54:13.321Z,100127.16
2022-12-06T02:56:40.881Z,100120.13
2022-12-06T02:59:08.860Z,100119.22
2022-12-06T03:01:36.582Z,100118.28
2022-12-06T03:04:04.538Z,100117.38
2022-12-06T03:06:32.350Z,100125.25
2022-12-06T03:09:00.037Z,100119.06
2022-12-06T03:11:31.307Z,100118.22
2022-12-06T03:13:58.884Z,100115.53
2022-12-06T03:16:26.495Z,100116.31
2022-12-06T03:18:54.056Z,100118.03
2022-12-06T03:21:22.577Z,100118.88
2022-12-06T03:23:50.513Z,100129.31
2022-12-06T03:26:18.384Z,100124.00
2022-12-06T03:28:45.964Z,100124.78
2022-12-06T03:31:13.742Z,100128.25
2022-12-06T03:33:43.009Z,100129.03
2022-12-06T03:36:11.021Z,100120.22
2022-12-06T03:38:38.594Z,100117.53
2022-12-06T03:41:06.126Z,100116.56
2022-12-06T03:43:33.720Z,100117.34
2022-12-06T03:46:02.362Z,100106.66
2022-12-06T03:48:30.387Z,100106.56
2022-12-06T03:50:58.843Z,100111.72
2022-12-06T03:53:26.533Z,100106.41
2022-12-06T03:55:54.121Z,100106.34
2022-12-06T03:58:21.703Z,100108.03
2022-12-06T04:00:49.646Z,100110.66
2022-12-06T04:03:17.223Z,100111.53
2022-12-06T04:05:44.882Z,100114.16
2022-12-06T04:08:12.494Z,100100.16
2022-12-06T04:10:40.534Z,100112.38
2022-12-06T04:13:08.501Z,100101.03
2022-12-06T04:15:36.342Z,100101.03
2022-12-06T04:18:13.720Z,100105.34
2022-12-06T04:20:59.328Z,100108.81
2022-12-06T04:23:27.234Z,100104.47
2022-12-06T04:25:54.760Z,100115.06
2022-12-06T04:28:39.847Z,100109.03
2022-12-06T04:31:24.925Z,100109.03
2022-12-06T04:34:10.438Z,100107.31
2022-12-06T04:36:55.328Z,100110.88
2022-12-06T04:39:22.932Z,100111.81
2022-12-06T04:42:08.156Z,100103.13
2022-12-06T04:44:36.138Z,100106.59
2022-12-06T04:47:03.795Z,100099.66
2022-12-06T04:49:34.540Z,100097.84
2022-12-06T04:52:02.162Z,100094.34
2022-12-06T04:54:30.768Z,100093.41
2022-12-06T04:56:58.762Z,100089.84
2022-12-06T04:59:26.384Z,100095.94
2022-12-06T05:01:53.935Z,100091.63
2022-12-06T05:04:21.628Z,100093.31
2022-12-06T05:06:49.321Z,100091.56
2022-12-06T05:09:17.248Z,100088.91
2022-12-06T05:11:45.246Z,100088.00
2022-12-06T05:14:12.883Z,100088.00
2022-12-06T05:16:40.455Z,100092.31
2022-12-06T05:19:08.093Z,100092.31
2022-12-06T05:21:36.030Z,100093.19
2022-12-06T05:24:03.581Z,100093.13
2022-12-06T05:26:31.276Z,100091.34
2022-12-06T05:28:58.894Z,100090.50
2022-12-06T05:31:26.570Z,100096.53
2022-12-06T05:33:54.904Z,100095.59
2022-12-06T05:36:22.528Z,100085.94
2022-12-06T05:38:51.751Z,100090.19
2022-12-06T05:41:19.540Z,100091.00
2022-12-06T05:43:47.167Z,100087.34
2022-12-06T05:46:15.205Z,100084.72
2022-12-06T05:48:42.886Z,100085.59
2022-12-06T05:51:11.333Z,100085.53
2022-12-06T05:53:39.018Z,100083.72
2022-12-06T05:56:07.299Z,100079.34
2022-12-06T05:58:35.256Z,100077.53
2022-12-06T06:01:02.881Z,100084.59
2022-12-06T06:03:31.962Z,100086.28
2022-12-06T06:05:59.652Z,100088.88
2022-12-06T06:08:27.246Z,100083.59
2022-12-06T06:10:55.231Z,100081.81
2022-12-06T06:13:22.966Z,100080.03
2022-12-06T06:15:50.544Z,100078.19
2022-12-06T06:18:18.398Z,100086.06
2022-12-06T06:20:46.050Z,100085.16
2022-12-06T06:23:14.016Z,100084.22
2022-12-06T06:25:41.742Z,100076.28
2022-12-06T06:28:09.946Z,100081.53
2022-12-06T06:30:37.555Z,100089.34
2022-12-06T06:33:05.155Z,100092.00
2022-12-06T06:35:34.891Z,100085.84
2022-12-06T06:38:02.509Z,100083.22
2022-12-06T06:40:30.141Z,100082.31
2022-12-06T06:42:57.783Z,100090.13
2022-12-06T06:45:28.997Z,100090.13
2022-12-06T06:47:57.183Z,100092.69
2022-12-06T06:50:25.363Z,100086.50
2022-12-06T06:52:53.520Z,100090.84
2022-12-06T06:55:21.142Z,100094.25
2022-12-06T06:57:48.772Z,100097.75
2022-12-06T07:00:17.263Z,100098.56
2022-12-06T07:02:45.315Z,100095.81
2022-12-06T07:05:13.166Z,100098.44
2022-12-06T07:07:40.858Z,100091.38
2022-12-06T07:10:08.529Z,100094.81
2022-12-06T07:12:36.503Z,100090.34
2022-12-06T07:15:04.165Z,100088.47
2022-12-06T07:17:31.774Z,100092.75
2022-12-06T07:19:59.819Z,100100.63
2022-12-06T07:22:27.673Z,100097.13
2022-12-06T07:24:56.004Z,100098.94
2022-12-06T07:27:23.740Z,100097.22
2022-12-06T07:29:53.103Z,100094.66
2022-12-06T07:32:20.773Z,100092.09
2022-12-06T07:34:48.418Z,100099.16
2022-12-06T07:37:19.522Z,100086.94
2022-12-06T07:39:47.134Z,100096.53
2022-12-06T07:42:32.505Z,100091.31
2022-12-06T07:45:07.484Z,100093.91
2022-12-06T07:47:35.671Z,100091.25
2022-12-06T07:50:03.437Z,100091.09
2022-12-06T07:52:31.193Z,100093.75
2022-12-06T07:54:58.970Z,100096.38
2022-12-06T07:57:26.704Z,100092.81
2022-12-06T07:59:55.769Z,100101.47
2022-12-06T08:02:23.545Z,100103.19
2022-12-06T08:04:51.419Z,100109.25
2022-12-06T08:07:19.197Z,100108.31
2022-12-06T08:09:48.122Z,100109.19
2022-12-06T08:12:16.199Z,100112.56
2022-12-06T08:14:43.857Z,100104.63
2022-12-06T08:17:11.557Z,100117.69
2022-12-06T08:19:39.257Z,100122.88
2022-12-06T08:22:07.568Z,100125.44
2022-12-06T08:24:35.607Z,100120.09
2022-12-06T08:27:03.560Z,100123.53
2022-12-06T08:29:31.278Z,100121.66
2022-12-06T08:31:59.467Z,100125.06
2022-12-06T08:34:28.658Z,100121.38
2022-12-06T08:37:01.680Z,100124.78
2022-12-06T08:39:31.209Z,100128.06
2022-12-06T08:42:03.587Z,100129.66
2022-12-06T08:44:32.511Z,100125.19
2022-12-06T08:47:00.198Z,100125.91
2022-12-06T08:49:27.939Z,100129.31
2022-12-06T08:51:56.071Z,100127.44
2022-12-06T08:54:24.038Z,100125.56
2022-12-06T08:56:52.412Z,100129.06
2022-12-06T08:59:20.736Z,100133.41
2022-12-06T09:01:48.444Z,100139.53
2022-12-06T09:04:16.282Z,100134.28
2022-12-06T09:06:44.166Z,100133.34
2022-12-06T09:09:11.899Z,100136.81
2022-12-06T09:11:39.933Z,100140.31
2022-12-06T09:14:09.430Z,100133.28
2022-12-06T09:16:37.150Z,100143.72
2022-12-06T09:19:04.783Z,100138.31
2022-12-06T09:21:33.951Z,100146.97
2022-12-06T09:24:02.081Z,100142.47
2022-12-06T09:26:29.881Z,100133.59
2022-12-06T09:28:57.875Z,100136.16
2022-12-06T09:31:25.990Z,100135.22
2022-12-06T09:33:55.572Z,100138.69
2022-12-06T09:36:23.912Z,100143.06
2022-12-06T09:38:51.736Z,100141.25
2022-12-06T09:41:19.634Z,100142.88
2022-12-06T09:43:47.570Z,100141.88
2022-12-06T09:46:15.456Z,100142.59
2022-12-06T09:48:48.827Z,100141.59
2022-12-06T09:51:17.049Z,100137.84
2022-12-06T09:53:45.051Z,100136.84
2022-12-06T09:56:12.735Z,100141.13
2022-12-06T09:58:42.251Z,100141.88
2022-12-06T10:01:10.001Z,100140.03
2022-12-06T10:03:37.682Z,100137.25
2022-12-06T10:06:05.786Z,100136.25
2022-12-06T10:08:33.773Z,100133.50
2022-12-06T10:11:08.352Z,100130.81
2022-12-06T10:13:37.071Z,100131.69
2022-12-06T10:16:05.050Z,100125.47
2022-12-06T10:18:32.854Z,100123.59
2022-12-06T10:21:00.582Z,100124.38
2022-12-06T10:23:29.649Z,100122.50
2022-12-06T10:25:57.705Z,100120.66
2022-12-06T10:28:25.481Z,100125.00
2022-12-06T10:30:53.381Z,100117.91
2022-12-06T10:33:21.169Z,100120.47
2022-12-06T10:35:48.971Z,100115.06
2022-12-06T10:38:17.047Z,100112.19
2022-12-06T10:40:44.630Z,100111.94
2022-12-06T10:43:12.515Z,100112.66
2022-12-06T10:45:57.554Z,100108.06
2022-12-06T10:48:25.458Z,100107.97
2022-12-06T10:50:53.357Z,100101.69
2022-12-06T10:53:21.021Z,100107.63
2022-12-06T10:55:49.020Z,100095.16
2022-12-06T10:58:17.067Z,100100.25
2022-12-06T11:00:45.952Z,100094.06
2022-12-06T11:03:13.917Z,100093.03
2022-12-06T11:05:41.691Z,100098.16
2022-12-06T11:08:09.512Z,100092.88
2022-12-06T11:10:37.732Z,100083.16
2022-12-06T11:13:07.109Z,100087.53
2022-12-06T11:15:34.807Z,100088.38
2022-12-06T11:18:02.937Z,100092.69
2022-12-06T11:20:30.853Z,100086.59
2022-12-06T11:23:06.233Z,100086.59
2022-12-06T11:25:36.126Z,100077.81
2022-12-06T11:28:04.402Z,100082.25
2022-12-06T11:30:32.256Z,100084.88
2022-12-06T11:33:00.126Z,100082.31
2022-12-06T11:35:27.998Z,100076.28
2022-12-06T11:37:57.432Z,100076.28
2022-12-06T11:40:25.345Z,100072.78
2022-12-06T11:42:53.218Z,100072.78
2022-12-06T11:45:21.996Z,100072.63
2022-12-06T11:47:49.917Z,100069.75
2022-12-06T11:50:18.757Z,100071.19
2022-12-06T11:52:46.833Z,100070.06
2022-12-06T11:55:16.249Z,100078.59
2022-12-06T11:57:44.079Z,100070.63
2022-12-06T12:00:12.185Z,100076.47
2022-12-06T12:02:41.879Z,100077.16
2022-12-06T12:05:09.824Z,100081.34
2022-12-06T12:07:38.043Z,100077.69
2022-12-06T12:10:05.898Z,100069.59
2022-12-06T12:12:54.033Z,100065.94
2022-12-06T12:15:21.817Z,100067.44
2022-12-06T12:17:49.566Z,100061.06
2022-12-06T12:20:17.439Z,100070.63
2022-12-06T12:22:45.570Z,100064.22
2022-12-06T12:25:20.803Z,100064.13
2022-12-06T12:27:50.810Z,100061.41
2022-12-06T12:30:18.714Z,100065.66
2022-12-06T12:32:46.607Z,100061.97
2022-12-06T12:35:15.113Z,100066.25
2022-12-06T12:37:43.094Z,100065.28
2022-12-06T12:40:12.089Z,100059.25
2022-12-06T12:42:40.456Z,100061.97
2022-12-06T12:45:08.267Z,100065.66
2022-12-06T12:47:37.340Z,100063.25
2022-12-06T12:50:05.320Z,100067.03
2022-12-06T12:52:33.201Z,100062.78
2022-12-06T12:55:01.376Z,100066.53
2022-12-06T12:57:29.584Z,100065.84
2022-12-06T12:59:57.354Z,100062.53
2022-12-06T13:02:27.197Z,100063.63
2022-12-06T13:05:17.392Z,100067.28
2022-12-06T13:07:46.627Z,100067.38
2022-12-06T13:10:15.189Z,100067.53
2022-12-06T13:12:42.969Z,100064.97
2022-12-06T13:15:11.451Z,100060.63
2022-12-06T13:17:39.495Z,100064.13
2022-12-06T13:20:07.296Z,100065.09
2022-12-06T13:22:35.672Z,100046.63
2022-12-06T13:25:04.070Z,100051.03
2022-12-06T13:27:33.789Z,100054.69
2022-12-06T13:30:01.781Z,100054.78
2022-12-06T13:32:30.215Z,100053.16
2022-12-06T13:34:58.934Z,100042.69
2022-12-06T13:37:27.092Z,100050.59
2022-12-06T13:39:56.261Z,100052.28
2022-12-06T13:42:24.191Z,100061.06
2022-12-06T13:44:51.981Z,100049.59
2022-12-06T13:47:20.178Z,100051.34
2022-12-06T13:49:49.176Z,100053.09
2022-12-06T13:52:17.196Z,100051.34
2022-12-06T13:54:45.112Z,100053.16
2022-12-06T13:57:12.944Z,100050.59
2022-12-06T13:59:41.383Z,100055.13
2022-12-06T14:02:09.414Z,100050.78
2022-12-06T14:04:39.093Z,100052.63
2022-12-06T14:09:34.026Z,100053.56
2022-12-06T14:12:02.098Z,100060.66
2022-12-06T14:14:30.018Z,100060.66
2022-12-06T14:16:58.995Z,100061.41
2022-12-06T14:19:26.965Z,100060.47
2022-12-06T14:21:55.894Z,100059.53
2022-12-06T14:24:23.831Z,100057.69
2022-12-06T14:26:51.676Z,100054.94
2022-12-06T14:29:20.318Z,100055.81
2022-12-06T14:31:48.716Z,100060.13
2022-12-06T14:34:16.959Z,100059.28
2022-12-06T14:36:44.855Z,100063.72
2022-12-06T14:39:12.889Z,100064.66
2022-12-06T14:41:58.104Z,100054.25
2022-12-06T14:44:27.823Z,100050.66
2022-12-06T14:46:55.648Z,100052.63
2022-12-06T14:49:40.709Z,100047.53
2022-12-06T14:52:08.880Z,100055.69
2022-12-06T14:54:39.263Z,100046.16
2022-12-06T14:57:07.148Z,100045.47
2022-12-06T15:02:22.953Z,100044.09
2022-12-06T15:04:51.417Z,100036.50
2022-12-06T15:07:19.283Z,100046.56
2022-12-06T15:09:47.282Z,100047.06
2022-12-06T15:12:32.595Z,100043.78
2022-12-06T15:15:02.169Z,100049.38
2022-12-06T15:17:30.066Z,100053.13
2022-12-06T15:19:58.169Z,100056.09
2022-12-06T15:22:27.010Z,100054.63
2022-12-06T15:24:55.579Z,100059.28
2022-12-06T15:27:25.936Z,100053.31
2022-12-06T15:29:53.878Z,100043.19
2022-12-06T15:32:21.731Z,100048.59
2022-12-06T15:34:49.845Z,100048.00
2022-12-06T15:40:06.372Z,100048.38
2022-12-06T15:42:34.461Z,100046.50
2022-12-06T15:45:02.938Z,100053.34
2022-12-06T15:47:31.193Z,100048.75
2022-12-06T15:49:59.245Z,100048.59
2022-12-06T15:52:28.486Z,100056.25
2022-12-06T15:54:56.691Z,100054.31
2022-12-06T15:57:24.607Z,100051.63
2022-12-06T15:59:52.426Z,100049.75
2022-12-06T16:02:20.816Z,100049.66
2022-12-06T16:04:52.642Z,100052.22
2022-12-06T16:07:20.510Z,100049.44
2022-12-06T16:09:48.345Z,100051.06
2022-12-06T16:12:16.375Z,100046.66
2022-12-06T16:14:44.271Z,100052.69
2022-12-06T16:17:15.409Z,100040.44
2022-12-06T16:20:00.967Z,100042.22
2022-12-06T16:22:42.639Z,100036.94
2022-12-06T16:25:10.945Z,100047.50
2022-12-06T16:27:41.675Z,100048.25
2022-12-06T16:30:09.618Z,100043.91
2022-12-06T16:32:37.548Z,100038.66
2022-12-06T16:35:05.530Z,100044.78
2022-12-06T16:37:33.476Z,100039.44
2022-12-06T16:40:03.352Z,100036.81
2022-12-06T16:42:31.262Z,100041.13
2022-12-06T16:44:59.215Z,100027.09
2022-12-06T16:49:54.344Z,100027.34
2022-12-06T16:52:23.103Z,100029.97
2022-12-06T16:54:51.089Z,100021.13
2022-12-06T16:57:19.758Z,100029.09
2022-12-06T16:59:47.959Z,100019.63
2022-12-06T17:02:16.322Z,100018.75
2022-12-06T17:04:46.368Z,100015.34
2022-12-06T17:07:14.241Z,100022.47
2022-12-06T17:09:42.279Z,100015.59
2022-12-06T17:12:13.403Z,100010.41
2022-12-06T17:14:41.561Z,100014.78
2022-12-06T17:17:09.589Z,100011.41
2022-12-06T17:19:37.440Z,100006.13
2022-12-06T17:22:07.540Z,100001.63
2022-12-06T17:24:35.478Z,100008.69
2022-12-06T17:27:03.364Z,100008.75
2022-12-06T17:29:32.897Z,99992.19
2022-12-06T17:32:00.922Z,100002.72
2022-12-06T17:34:28.821Z,100009.88
2022-12-06T17:36:57.772Z,100005.50
2022-12-06T17:39:26.080Z,99999.41
2022-12-06T17:42:11.348Z,100004.59
2022-12-06T17:44:39.990Z,99998.41
2022-12-06T17:47:07.890Z,100008.00
2022-12-06T17:49:39.153Z,100006.13
2022-12-06T17:52:07.209Z,100007.00
2022-12-06T17:54:35.042Z,100002.41
2022-12-06T17:57:02.908Z,100008.38
2022-12-06T17:59:32.205Z,100003.81
2022-12-06T18:02:17.956Z,99997.50
2022-12-06T18:04:46.855Z,100006.19
2022-12-06T18:07:14.641Z,100001.75
2022-12-06T18:09:42.479Z,100001.69
2022-12-06T18:12:10.485Z,99996.34
2022-12-06T18:14:38.318Z,99998.03
2022-12-06T18:17:06.287Z,99995.28
2022-12-06T18:19:34.473Z,100000.44
2022-12-06T18:22:02.337Z,99995.97
2022-12-06T18:24:35.343Z,99998.47
2022-12-06T18:27:03.849Z,99991.34
2022-12-06T18:29:31.653Z,99999.25
2022-12-06T18:31:59.488Z,99988.75
2022-12-06T18:34:27.490Z,99989.72
2022-12-06T18:36:55.708Z,99996.78
2022-12-06T18:39:25.662Z,99987.06
2022-12-06T18:41:54.063Z,100000.19
2022-12-06T18:44:21.950Z,99999.25
2022-12-06T18:46:50.027Z,99986.06
2022-12-06T18:49:18.092Z,99990.38
2022-12-06T18:51:45.869Z,99985.13
2022-12-06T18:54:14.984Z,99987.75
2022-12-06T18:56:44.845Z,99994.72
2022-12-06T18:59:12.671Z,99992.09
2022-12-06T19:01:41.086Z,99990.25
2022-12-06T19:04:09.068Z,99992.78
2022-12-06T19:06:36.936Z,99991.75
2022-12-06T19:09:04.875Z,99987.34
2022-12-06T19:11:32.812Z,99989.88
2022-12-06T19:14:01.176Z,99989.88
2022-12-06T19:16:29.071Z,99982.09
2022-12-06T19:18:57.113Z,99988.19
2022-12-06T19:21:25.669Z,99982.91
2022-12-06T19:23:53.474Z,99989.06
2022-12-06T19:26:21.586Z,99984.53
2022-12-06T19:28:49.415Z,99978.34
2022-12-06T19:31:17.675Z,99972.91
2022-12-06T19:33:46.663Z,99972.03
2022-12-06T19:36:14.492Z,99983.34
2022-12-06T19:38:42.831Z,99980.72
2022-12-06T19:41:10.790Z,99976.31
2022-12-06T19:43:56.244Z,99979.78
2022-12-06T19:46:26.291Z,99970.16
2022-12-06T19:48:54.507Z,99965.75
2022-12-06T19:51:22.714Z,99960.41
2022-12-06T19:53:50.677Z,99967.28
2022-12-06T19:56:20.391Z,99960.22
2022-12-06T19:58:49.882Z,99961.09
2022-12-06T20:01:18.680Z,99959.28
2022-12-06T20:03:47.422Z,99958.34
2022-12-06T20:06:18.027Z,99962.69
2022-12-06T20:08:46.365Z,99957.59
2022-12-06T20:11:36.865Z,99953.34
2022-12-06T20:14:04.759Z,99947.50
2022-12-06T20:16:32.599Z,99950.34
2022-12-06T20:19:00.448Z,99947.13
2022-12-06T20:21:29.181Z,99956.91
2022-12-06T20:23:59.428Z,99955.28
2022-12-06T20:26:27.230Z,99952.66
2022-12-06T20:28:55.119Z,99951.78
2022-12-06T20:31:23.271Z,99953.50
2022-12-06T20:33:51.506Z,99949.91
2022-12-06T20:36:20.078Z,99956.91
2022-12-06T20:38:47.878Z,99948.84
2022-12-06T20:41:15.816Z,99951.28
2022-12-06T20:43:43.734Z,99944.16
2022-12-06T20:46:15.263Z,99944.16
2022-12-06T20:48:43.919Z,99942.38
2022-12-06T20:51:11.849Z,99945.88
2022-12-06T20:53:40.280Z,99939.72
2022-12-06T20:56:08.419Z,99944.16
2022-12-06T20:58:38.336Z,99943.22
2022-12-06T21:01:08.407Z,99937.97
2022-12-06T21:03:36.304Z,99942.28
2022-12-06T21:06:04.372Z,99949.25
2022-12-06T21:08:32.067Z,99948.31
2022-12-06T21:11:22.274Z,99942.09
2022-12-06T21:13:49.418Z,99941.16
2022-12-06T21:16:17.883Z,99937.59
2022-12-06T21:18:45.728Z,99932.31
2022-12-06T21:21:15.559Z,99918.22
2022-12-06T21:23:43.392Z,99919.94
2022-12-06T21:26:11.575Z,99918.97
2022-12-06T21:28:39.678Z,99919.75
2022-12-06T21:31:07.808Z,99918.81
2022-12-06T21:33:36.862Z,99924.00
2022-12-06T21:36:04.854Z,99921.19
2022-12-06T21:38:32.696Z,99924.69
2022-12-06T21:41:01.840Z,99929.78
2022-12-06T21:43:29.827Z,99922.66
2022-12-06T21:45:58.428Z,99930.38
2022-12-06T21:48:26.306Z,99925.97
2022-12-06T21:50:54.746Z,99923.22
2022-12-06T21:53:22.570Z,99931.06
2022-12-06T21:55:50.433Z,99930.88
2022-12-06T21:58:18.487Z,99933.44
2022-12-06T22:00:46.564Z,99924.50
2022-12-06T22:03:20.942Z,99933.25
2022-12-06T22:05:50.706Z,99917.34
2022-12-06T22:08:18.618Z,99921.78
2022-12-06T22:10:46.496Z,99913.88
2022-12-06T22:13:14.336Z,99930.53
2022-12-06T22:15:42.543Z,99923.56
2022-12-06T22:18:10.456Z,99920.06
2022-12-06T22:20:38.473Z,99924.41
2022-12-06T22:23:06.640Z,99919.03
2022-12-06T22:25:34.395Z,99923.28
2022-12-06T22:28:02.548Z,99918.78
2022-12-06T22:30:30.320Z,99913.34
2022-12-06T22:32:58.051Z,99915.03
2022-12-06T22:35:26.106Z,99916.72
2022-12-06T22:37:53.922Z,99919.38
2022-12-06T22:40:22.027Z,99915.03
2022-12-06T22:42:49.908Z,99911.63
2022-12-06T22:45:20.791Z,99912.59
2022-12-06T22:47:48.559Z,99913.50
2022-12-06T22:50:16.380Z,99908.22
2022-12-06T22:52:44.118Z,99914.34
2022-12-06T22:55:11.785Z,99899.38
2022-12-06T22:57:40.954Z,99912.47
2022-12-06T23:00:08.738Z,99904.41
2022-12-06T23:02:36.415Z,99904.22
2022-12-06T23:05:04.640Z,99887.44
2022-12-06T23:07:32.339Z,99891.69
2022-12-06T23:10:01.236Z,99899.59
2022-12-06T23:12:29.266Z,99895.09
2022-12-06T23:14:57.004Z,99891.50
2022-12-06T23:17:25.262Z,99889.66
2022-12-06T23:19:53.027Z,99891.25
2022-12-06T23:22:20.716Z,99889.38
2022-12-06T23:24:48.369Z,99891.00
2022-12-06T23:27:16.346Z,99887.28
2022-12-06T23:29:44.389Z,99882.81
2022-12-06T23:32:12.142Z,99883.63
2022-12-06T23:34:41.324Z,99887.06
2022-12-06T23:37:08.979Z,99889.69
2022-12-06T23:39:36.571Z,99892.13
2022-12-06T23:42:04.599Z,99895.59
2022-12-06T23:44:32.200Z,99893.84
2022-12-06T23:47:00.677Z,99888.56
2022-12-06T23:49:28.354Z,99890.25
2022-12-06T23:51:56.007Z,99884.88
2022-12-06T23:54:23.897Z,99886.59
2022-12-06T23:56:51.621Z,99881.22
2022-12-06T23:59:19.843Z,99881.22
